Terminal Aerodrome Forecast
Issued by NWS Charleston, SC

Home | Current Version | Previous Version | Text Only | Print | Product List | Glossary On
Versions: 1 2 3 4 5 6 7 8 9 10 11 12 13 14 15 16 17 18 19 20 21 22 23 24 25 26 27
000
FTUS42 KCHS 160500
TAFCHS
TAF
KCHS 160522Z 1606/1706 02013G20KT P6SM SCT030 SCT250
     FM161200 03014G24KT P6SM SKC
     FM161800 06012G20KT P6SM SKC
     FM170000 05010KT P6SM SCT030=

USA.gov is the U.S. government's official web portal to all federal, state and local government web resources and services.